sensor_id;sensor_type;location;lat;lon;timestamp;pressure;altitude;pressure_sealevel;temperature;humidity
64616;BME280;51027;42.162;24.754;2022-12-08T00:00:36;99739.56;;;6.30;100.00
64616;BME280;51027;42.162;24.754;2022-12-08T00:03:01;99748.03;;;6.42;100.00
64616;BME280;51027;42.162;24.754;2022-12-08T00:05:27;99738.44;;;6.42;100.00
64616;BME280;51027;42.162;24.754;2022-12-08T00:08:11;99751.28;;;6.53;100.00
64616;BME280;51027;42.162;24.754;2022-12-08T00:10:55;99742.56;;;6.52;100.00
64616;BME280;51027;42.162;24.754;2022-12-08T00:13:20;99752.94;;;6.57;100.00
64616;BME280;51027;42.162;24.754;2022-12-08T00:15:45;99760.69;;;6.61;100.00
64616;BME280;51027;42.162;24.754;2022-12-08T00:18:11;99749.41;;;6.59;100.00
64616;BME280;51027;42.162;24.754;2022-12-08T00:20:36;99754.59;;;6.61;100.00
64616;BME280;51027;42.162;24.754;2022-12-08T00:23:02;99735.00;;;6.40;100.00
64616;BME280;51027;42.162;24.754;2022-12-08T00:25:29;99774.09;;;6.46;100.00
64616;BME280;51027;42.162;24.754;2022-12-08T00:27:54;99764.28;;;6.57;100.00
64616;BME280;51027;42.162;24.754;2022-12-08T00:30:20;99769.31;;;6.67;100.00
64616;BME280;51027;42.162;24.754;2022-12-08T00:32:45;99777.03;;;6.71;100.00
64616;BME280;51027;42.162;24.754;2022-12-08T00:35:11;99775.34;;;6.69;100.00
64616;BME280;51027;42.162;24.754;2022-12-08T00:37:36;99750.28;;;6.58;100.00
64616;BME280;51027;42.162;24.754;2022-12-08T00:40:02;99768.78;;;6.89;100.00
64616;BME280;51027;42.162;24.754;2022-12-08T00:42:27;99762.56;;;6.93;100.00
64616;BME280;51027;42.162;24.754;2022-12-08T00:44:53;99767.81;;;6.93;100.00
64616;BME280;51027;42.162;24.754;2022-12-08T00:47:18;99770.38;;;6.97;100.00
64616;BME280;51027;42.162;24.754;2022-12-08T00:49:44;99764.09;;;7.02;100.00
64616;BME280;51027;42.162;24.754;2022-12-08T00:52:09;99758.13;;;6.97;100.00
64616;BME280;51027;42.162;24.754;2022-12-08T00:54:36;99764.88;;;7.07;100.00
64616;BME280;51027;42.162;24.754;2022-12-08T00:57:05;99763.06;;;7.09;100.00
64616;BME280;51027;42.162;24.754;2022-12-08T00:59:31;99754.31;;;7.10;100.00
64616;BME280;51027;42.162;24.754;2022-12-08T01:01:56;99756.22;;;7.05;100.00
64616;BME280;51027;42.162;24.754;2022-12-08T01:04:22;99745.94;;;6.94;100.00
64616;BME280;51027;42.162;24.754;2022-12-08T01:06:47;99755.47;;;6.99;100.00
64616;BME280;51027;42.162;24.754;2022-12-08T01:09:17;99765.06;;;7.00;100.00
64616;BME280;51027;42.162;24.754;2022-12-08T01:11:43;99770.38;;;6.97;100.00
64616;BME280;51027;42.162;24.754;2022-12-08T01:14:09;99770.50;;;6.90;100.00
64616;BME280;51027;42.162;24.754;2022-12-08T01:16:35;99772.50;;;6.79;100.00
64616;BME280;51027;42.162;24.754;2022-12-08T01:19:01;99758.56;;;6.79;100.00
64616;BME280;51027;42.162;24.754;2022-12-08T01:21:27;99758.69;;;6.73;100.00
64616;BME280;51027;42.162;24.754;2022-12-08T01:23:53;99753.44;;;6.73;100.00
64616;BME280;51027;42.162;24.754;2022-12-08T01:26:20;99767.50;;;6.69;100.00
64616;BME280;51027;42.162;24.754;2022-12-08T01:28:46;99768.41;;;6.68;100.00
64616;BME280;51027;42.162;24.754;2022-12-08T01:31:15;99767.41;;;6.73;100.00
64616;BME280;51027;42.162;24.754;2022-12-08T01:33:45;99742.47;;;6.57;100.00
64616;BME280;51027;42.162;24.754;2022-12-08T01:36:31;99770.88;;;6.74;100.00
64616;BME280;51027;42.162;24.754;2022-12-08T01:38:59;99771.81;;;6.71;100.00
64616;BME280;51027;42.162;24.754;2022-12-08T01:41:28;99773.50;;;6.74;100.00
64616;BME280;51027;42.162;24.754;2022-12-08T01:46:33;99770.75;;;6.80;100.00
64616;BME280;51027;42.162;24.754;2022-12-08T01:49:22;99750.13;;;6.66;100.00
64616;BME280;51027;42.162;24.754;2022-12-08T01:51:58;99761.22;;;6.77;100.00
64616;BME280;51027;42.162;24.754;2022-12-08T01:54:28;99765.75;;;6.69;100.00
64616;BME280;51027;42.162;24.754;2022-12-08T01:57:09;99768.44;;;6.66;100.00
64616;BME280;51027;42.162;24.754;2022-12-08T01:59:41;99763.00;;;6.75;100.00
64616;BME280;51027;42.162;24.754;2022-12-08T02:02:10;99763.88;;;6.76;100.00
64616;BME280;51027;42.162;24.754;2022-12-08T02:04:36;99758.44;;;6.83;100.00
64616;BME280;51027;42.162;24.754;2022-12-08T02:07:06;99761.13;;;6.80;100.00
64616;BME280;51027;42.162;24.754;2022-12-08T02:09:32;99743.19;;;6.63;100.00
64616;BME280;51027;42.162;24.754;2022-12-08T02:11:59;99741.59;;;6.58;100.00
64616;BME280;51027;42.162;24.754;2022-12-08T02:14:25;99759.41;;;6.79;100.00
64616;BME280;51027;42.162;24.754;2022-12-08T02:22:38;99754.19;;;6.79;100.00
64616;BME280;51027;42.162;24.754;2022-12-08T02:28:29;99761.13;;;6.80;100.00
64616;BME280;51027;42.162;24.754;2022-12-08T02:39:00;99767.19;;;6.82;100.00
64616;BME280;51027;42.162;24.754;2022-12-08T02:41:35;99762.13;;;6.76;100.00
64616;BME280;51027;42.162;24.754;2022-12-08T02:44:10;99726.09;;;6.49;100.00
64616;BME280;51027;42.162;24.754;2022-12-08T02:46:43;99760.41;;;6.75;100.00
64616;BME280;51027;42.162;24.754;2022-12-08T02:49:10;99766.66;;;6.68;100.00
64616;BME280;51027;42.162;24.754;2022-12-08T02:51:39;99766.72;;;6.63;100.00
64616;BME280;51027;42.162;24.754;2022-12-08T02:54:05;99760.13;;;6.47;100.00
64616;BME280;51027;42.162;24.754;2022-12-08T03:02:19;99787.44;;;6.32;100.00
64616;BME280;51027;42.162;24.754;2022-12-08T03:05:06;99784.56;;;6.04;100.00
64616;BME280;51027;42.162;24.754;2022-12-08T03:07:39;99751.09;;;6.20;100.00
64616;BME280;51027;42.162;24.754;2022-12-08T03:10:11;99782.63;;;6.14;100.00
64616;BME280;51027;42.162;24.754;2022-12-08T03:13:03;99773.91;;;6.14;100.00
64616;BME280;51027;42.162;24.754;2022-12-08T03:15:31;99776.56;;;6.11;100.00
64616;BME280;51027;42.162;24.754;2022-12-08T03:17:58;99768.94;;;6.00;100.00
64616;BME280;51027;42.162;24.754;2022-12-08T03:20:26;99750.47;;;6.09;100.00
64616;BME280;51027;42.162;24.754;2022-12-08T03:22:55;99769.28;;;6.26;100.00
64616;BME280;51027;42.162;24.754;2022-12-08T03:25:24;99769.16;;;6.32;100.00
64616;BME280;51027;42.162;24.754;2022-12-08T03:27:51;99759.31;;;6.45;100.00
64616;BME280;51027;42.162;24.754;2022-12-08T03:30:17;99744.00;;;6.27;100.00
64616;BME280;51027;42.162;24.754;2022-12-08T03:32:51;99755.13;;;6.37;100.00
64616;BME280;51027;42.162;24.754;2022-12-08T03:35:22;99765.63;;;6.35;100.00
64616;BME280;51027;42.162;24.754;2022-12-08T03:37:48;99775.47;;;6.22;100.00
64616;BME280;51027;42.162;24.754;2022-12-08T03:40:16;99766.94;;;6.14;100.00
64616;BME280;51027;42.162;24.754;2022-12-08T03:42:42;99781.38;;;6.32;100.00
64616;BME280;51027;42.162;24.754;2022-12-08T03:45:07;99748.84;;;6.03;100.00
64616;BME280;51027;42.162;24.754;2022-12-08T03:47:33;99771.25;;;6.15;100.00
64616;BME280;51027;42.162;24.754;2022-12-08T03:49:58;99785.66;;;6.36;100.00
64616;BME280;51027;42.162;24.754;2022-12-08T03:52:24;99783.03;;;6.36;100.00
64616;BME280;51027;42.162;24.754;2022-12-08T03:54:49;99777.84;;;6.33;100.00
64616;BME280;51027;42.162;24.754;2022-12-08T03:57:15;99785.56;;;6.41;100.00
64616;BME280;51027;42.162;24.754;2022-12-08T03:59:40;99789.09;;;6.38;100.00
64616;BME280;51027;42.162;24.754;2022-12-08T04:02:06;99777.00;;;6.34;100.00
64616;BME280;51027;42.162;24.754;2022-12-08T04:04:31;99773.38;;;6.40;100.00
64616;BME280;51027;42.162;24.754;2022-12-08T04:06:56;99764.66;;;6.39;100.00
64616;BME280;51027;42.162;24.754;2022-12-08T04:09:22;99763.88;;;6.35;100.00
64616;BME280;51027;42.162;24.754;2022-12-08T04:11:47;99750.38;;;6.14;100.00
64616;BME280;51027;42.162;24.754;2022-12-08T04:14:13;99782.34;;;6.28;100.00
64616;BME280;51027;42.162;24.754;2022-12-08T04:16:39;99776.47;;;6.17;100.00
64616;BME280;51027;42.162;24.754;2022-12-08T04:19:04;99778.00;;;6.27;100.00
64616;BME280;51027;42.162;24.754;2022-12-08T04:21:29;99777.38;;;6.14;100.00
64616;BME280;51027;42.162;24.754;2022-12-08T04:23:55;99777.13;;;6.26;100.00
64616;BME280;51027;42.162;24.754;2022-12-08T04:26:20;99785.84;;;6.27;100.00
64616;BME280;51027;42.162;24.754;2022-12-08T04:28:46;99788.34;;;6.31;100.00
64616;BME280;51027;42.162;24.754;2022-12-08T04:31:11;99787.63;;;6.25;100.00
64616;BME280;51027;42.162;24.754;2022-12-08T04:33:37;99784.91;;;6.29;100.00
64616;BME280;51027;42.162;24.754;2022-12-08T04:36:03;99783.09;;;6.33;100.00
64616;BME280;51027;42.162;24.754;2022-12-08T04:38:29;99740.84;;;6.10;100.00
64616;BME280;51027;42.162;24.754;2022-12-08T04:40:55;99781.38;;;6.32;100.00
64616;BME280;51027;42.162;24.754;2022-12-08T04:43:20;99790.94;;;6.34;100.00
64616;BME280;51027;42.162;24.754;2022-12-08T04:45:46;99801.44;;;6.31;100.00
64616;BME280;51027;42.162;24.754;2022-12-08T04:48:11;99778.56;;;6.41;100.00
64616;BME280;51027;42.162;24.754;2022-12-08T04:50:39;99777.59;;;6.47;100.00
64616;BME280;51027;42.162;24.754;2022-12-08T04:53:06;99784.63;;;6.43;100.00
64616;BME280;51027;42.162;24.754;2022-12-08T04:55:32;99777.75;;;6.39;100.00
64616;BME280;51027;42.162;24.754;2022-12-08T04:57:58;99772.75;;;6.27;100.00
64616;BME280;51027;42.162;24.754;2022-12-08T05:00:23;99776.31;;;6.24;100.00
64616;BME280;51027;42.162;24.754;2022-12-08T05:02:48;99767.88;;;6.10;100.00
64616;BME280;51027;42.162;24.754;2022-12-08T05:05:14;99776.31;;;6.23;100.00
64616;BME280;51027;42.162;24.754;2022-12-08T05:07:39;99798.81;;;6.31;100.00
64616;BME280;51027;42.162;24.754;2022-12-08T05:10:05;99798.69;;;6.38;100.00
64616;BME280;51027;42.162;24.754;2022-12-08T05:12:32;99796.75;;;6.47;100.00
64616;BME280;51027;42.162;24.754;2022-12-08T05:14:57;99803.78;;;6.45;100.00
64616;BME280;51027;42.162;24.754;2022-12-08T05:17:22;99802.06;;;6.43;100.00
64616;BME280;51027;42.162;24.754;2022-12-08T05:19:48;99784.56;;;6.46;100.00
64616;BME280;51027;42.162;24.754;2022-12-08T05:22:13;99798.50;;;6.47;100.00
64616;BME280;51027;42.162;24.754;2022-12-08T05:24:39;99779.66;;;6.31;100.00
64616;BME280;51027;42.162;24.754;2022-12-08T05:27:04;99792.69;;;6.34;100.00
64616;BME280;51027;42.162;24.754;2022-12-08T05:29:30;99808.88;;;6.51;100.00
64616;BME280;51027;42.162;24.754;2022-12-08T05:31:55;99809.53;;;6.61;100.00
64616;BME280;51027;42.162;24.754;2022-12-08T05:34:20;99820.94;;;6.58;100.00
64616;BME280;51027;42.162;24.754;2022-12-08T05:36:46;99807.06;;;6.55;100.00
64616;BME280;51027;42.162;24.754;2022-12-08T05:39:13;99818.94;;;6.70;100.00
64616;BME280;51027;42.162;24.754;2022-12-08T05:41:39;99818.09;;;6.27;100.00
64616;BME280;51027;42.162;24.754;2022-12-08T05:44:05;99817.88;;;6.38;100.00
64616;BME280;51027;42.162;24.754;2022-12-08T05:46:31;99827.31;;;6.45;100.00
64616;BME280;51027;42.162;24.754;2022-12-08T05:49:01;99830.44;;;6.62;100.00
64616;BME280;51027;42.162;24.754;2022-12-08T05:51:27;99830.31;;;6.69;100.00
64616;BME280;51027;42.162;24.754;2022-12-08T05:53:54;99832.97;;;6.67;100.00
64616;BME280;51027;42.162;24.754;2022-12-08T05:56:20;99833.78;;;6.69;100.00
64616;BME280;51027;42.162;24.754;2022-12-08T05:58:46;99836.09;;;6.83;100.00
64616;BME280;51027;42.162;24.754;2022-12-08T06:01:25;99842.41;;;6.76;100.00
64616;BME280;51027;42.162;24.754;2022-12-08T06:03:52;99844.03;;;6.80;100.00
64616;BME280;51027;42.162;24.754;2022-12-08T06:06:17;99835.72;;;7.01;100.00
64616;BME280;51027;42.162;24.754;2022-12-08T06:08:43;99834.00;;;7.00;100.00
64616;BME280;51027;42.162;24.754;2022-12-08T06:11:08;99844.34;;;7.06;100.00
64616;BME280;51027;42.162;24.754;2022-12-08T06:13:34;99841.59;;;7.11;100.00
64616;BME280;51027;42.162;24.754;2022-12-08T06:16:05;99839.91;;;7.08;100.00
64616;BME280;51027;42.162;24.754;2022-12-08T06:18:30;99840.00;;;7.05;100.00
64616;BME280;51027;42.162;24.754;2022-12-08T06:21:07;99837.00;;;7.20;100.00
64616;BME280;51027;42.162;24.754;2022-12-08T06:23:33;99840.41;;;7.24;100.00
64616;BME280;51027;42.162;24.754;2022-12-08T06:26:03;99827.56;;;7.13;100.00
64616;BME280;51027;42.162;24.754;2022-12-08T06:28:30;99837.88;;;7.21;100.00
64616;BME280;51027;42.162;24.754;2022-12-08T06:30:56;99833.88;;;7.05;100.00
64616;BME280;51027;42.162;24.754;2022-12-08T06:33:22;99824.69;;;7.26;100.00
64616;BME280;51027;42.162;24.754;2022-12-08T06:35:47;99844.44;;;7.39;100.00
64616;BME280;51027;42.162;24.754;2022-12-08T06:38:12;99846.72;;;7.53;100.00
64616;BME280;51027;42.162;24.754;2022-12-08T06:40:38;99846.78;;;7.51;100.00
64616;BME280;51027;42.162;24.754;2022-12-08T06:43:03;99846.78;;;7.51;100.00
64616;BME280;51027;42.162;24.754;2022-12-08T06:45:28;99844.00;;;7.57;100.00
64616;BME280;51027;42.162;24.754;2022-12-08T06:47:54;99849.16;;;7.60;100.00
64616;BME280;51027;42.162;24.754;2022-12-08T06:50:19;99864.00;;;7.61;100.00
64616;BME280;51027;42.162;24.754;2022-12-08T06:52:45;99857.97;;;7.20;100.00
64616;BME280;51027;42.162;24.754;2022-12-08T06:55:11;99860.00;;;7.45;100.00
64616;BME280;51027;42.162;24.754;2022-12-08T06:57:36;99836.97;;;7.22;100.00
64616;BME280;51027;42.162;24.754;2022-12-08T07:00:04;99854.50;;;7.20;100.00
64616;BME280;51027;42.162;24.754;2022-12-08T07:02:29;99855.63;;;7.08;100.00
64616;BME280;51027;42.162;24.754;2022-12-08T07:04:54;99862.03;;;6.95;100.00
64616;BME280;51027;42.162;24.754;2022-12-08T07:07:20;99869.72;;;7.03;100.00
64616;BME280;51027;42.162;24.754;2022-12-08T07:09:45;99866.38;;;7.35;100.00
64616;BME280;51027;42.162;24.754;2022-12-08T07:12:11;99856.69;;;7.38;100.00
64616;BME280;51027;42.162;24.754;2022-12-08T07:14:36;99873.34;;;7.36;100.00
64616;BME280;51027;42.162;24.754;2022-12-08T07:17:02;99848.53;;;7.13;100.00
64616;BME280;51027;42.162;24.754;2022-12-08T07:19:27;99880.38;;;6.93;100.00
64616;BME280;51027;42.162;24.754;2022-12-08T07:21:52;99888.06;;;7.01;100.00
64616;BME280;51027;42.162;24.754;2022-12-08T07:24:18;99865.28;;;7.06;100.00
64616;BME280;51027;42.162;24.754;2022-12-08T07:26:43;99881.63;;;7.17;100.00
64616;BME280;51027;42.162;24.754;2022-12-08T07:29:09;99853.69;;;7.18;100.00
64616;BME280;51027;42.162;24.754;2022-12-08T07:31:35;99891.00;;;7.28;100.00
64616;BME280;51027;42.162;24.754;2022-12-08T07:34:00;99901.81;;;7.12;100.00
64616;BME280;51027;42.162;24.754;2022-12-08T07:36:26;99906.06;;;7.18;100.00
64616;BME280;51027;42.162;24.754;2022-12-08T07:38:52;99908.19;;;6.99;100.00
64616;BME280;51027;42.162;24.754;2022-12-08T07:41:21;99904.03;;;7.31;100.00
64616;BME280;51027;42.162;24.754;2022-12-08T07:43:47;99900.00;;;7.16;100.00
64616;BME280;51027;42.162;24.754;2022-12-08T07:46:17;99905.53;;;7.41;100.00
64616;BME280;51027;42.162;24.754;2022-12-08T07:48:43;99921.66;;;7.22;100.00
64616;BME280;51027;42.162;24.754;2022-12-08T07:51:10;99921.41;;;7.33;100.00
64616;BME280;51027;42.162;24.754;2022-12-08T07:53:40;99920.28;;;7.45;100.00
64616;BME280;51027;42.162;24.754;2022-12-08T07:56:07;99915.72;;;7.53;100.00
64616;BME280;51027;42.162;24.754;2022-12-08T07:58:33;99918.34;;;7.16;100.00
64616;BME280;51027;42.162;24.754;2022-12-08T08:00:58;99913.69;;;7.29;100.00
64616;BME280;51027;42.162;24.754;2022-12-08T08:03:24;99914.72;;;7.59;100.00
64616;BME280;51027;42.162;24.754;2022-12-08T08:05:49;99923.03;;;7.77;100.00
64616;BME280;51027;42.162;24.754;2022-12-08T08:08:16;99909.16;;;7.72;100.00
64616;BME280;51027;42.162;24.754;2022-12-08T08:10:41;99909.19;;;7.34;100.00
64616;BME280;51027;42.162;24.754;2022-12-08T08:13:07;99925.75;;;7.36;100.00
64616;BME280;51027;42.162;24.754;2022-12-08T08:15:33;99930.28;;;7.28;100.00
64616;BME280;51027;42.162;24.754;2022-12-08T08:17:59;99933.34;;;7.48;100.00
64616;BME280;51027;42.162;24.754;2022-12-08T08:20:24;99922.03;;;7.46;100.00
64616;BME280;51027;42.162;24.754;2022-12-08T08:22:50;99918.38;;;7.13;100.00
64616;BME280;51027;42.162;24.754;2022-12-08T08:25:17;99932.84;;;7.31;100.00
64616;BME280;51027;42.162;24.754;2022-12-08T08:27:44;99930.59;;;7.53;100.00
64616;BME280;51027;42.162;24.754;2022-12-08T08:30:11;99928.63;;;7.23;100.00
64616;BME280;51027;42.162;24.754;2022-12-08T08:32:37;99931.91;;;7.33;100.00
64616;BME280;51027;42.162;24.754;2022-12-08T08:35:03;99926.13;;;7.58;100.00
64616;BME280;51027;42.162;24.754;2022-12-08T08:37:29;99923.94;;;7.76;100.00
64616;BME280;51027;42.162;24.754;2022-12-08T08:39:54;99920.19;;;7.49;100.00
64616;BME280;51027;42.162;24.754;2022-12-08T08:42:21;99922.34;;;7.69;100.00
64616;BME280;51027;42.162;24.754;2022-12-08T08:44:47;99911.63;;;7.78;100.00
64616;BME280;51027;42.162;24.754;2022-12-08T08:47:12;99917.78;;;7.77;100.00
64616;BME280;51027;42.162;24.754;2022-12-08T08:49:38;99914.41;;;8.08;100.00
64616;BME280;51027;42.162;24.754;2022-12-08T08:52:04;99906.84;;;8.30;100.00
64616;BME280;51027;42.162;24.754;2022-12-08T08:54:29;99879.47;;;8.06;100.00
64616;BME280;51027;42.162;24.754;2022-12-08T08:56:59;99904.41;;;8.22;100.00
64616;BME280;51027;42.162;24.754;2022-12-08T08:59:25;99899.13;;;7.90;100.00
64616;BME280;51027;42.162;24.754;2022-12-08T09:01:52;99904.63;;;8.13;100.00
64616;BME280;51027;42.162;24.754;2022-12-08T09:04:19;99899.59;;;8.05;100.00
64616;BME280;51027;42.162;24.754;2022-12-08T09:06:45;99828.81;;;7.34;100.00
64616;BME280;51027;42.162;24.754;2022-12-08T09:09:12;99886.38;;;8.10;100.00
64616;BME280;51027;42.162;24.754;2022-12-08T09:11:37;99894.03;;;8.18;100.00
64616;BME280;51027;42.162;24.754;2022-12-08T09:14:03;99897.00;;;8.04;100.00
64616;BME280;51027;42.162;24.754;2022-12-08T09:16:28;99890.84;;;8.05;100.00
64616;BME280;51027;42.162;24.754;2022-12-08T09:18:54;99889.66;;;8.17;100.00
64616;BME280;51027;42.162;24.754;2022-12-08T09:21:23;99885.59;;;8.41;100.00
64616;BME280;51027;42.162;24.754;2022-12-08T09:23:51;99878.97;;;8.58;100.00
64616;BME280;51027;42.162;24.754;2022-12-08T09:26:17;99864.69;;;8.69;100.00
64616;BME280;51027;42.162;24.754;2022-12-08T09:28:46;99854.44;;;8.59;100.00
64616;BME280;51027;42.162;24.754;2022-12-08T09:31:12;99859.25;;;8.44;100.00
64616;BME280;51027;42.162;24.754;2022-12-08T09:33:38;99877.50;;;8.48;100.00
64616;BME280;51027;42.162;24.754;2022-12-08T09:36:04;99869.41;;;8.56;100.00
64616;BME280;51027;42.162;24.754;2022-12-08T09:38:30;99865.59;;;8.66;100.00
64616;BME280;51027;42.162;24.754;2022-12-08T09:40:56;99867.72;;;8.53;100.00
64616;BME280;51027;42.162;24.754;2022-12-08T09:46:08;99860.09;;;8.44;100.00
64616;BME280;51027;42.162;24.754;2022-12-08T09:48:36;99857.06;;;8.58;100.00
64616;BME280;51027;42.162;24.754;2022-12-08T09:51:03;99845.81;;;8.22;100.00
64616;BME280;51027;42.162;24.754;2022-12-08T09:53:41;99847.84;;;8.45;100.00
64616;BME280;51027;42.162;24.754;2022-12-08T09:59:00;99851.66;;;8.64;100.00
64616;BME280;51027;42.162;24.754;2022-12-08T10:01:30;99851.56;;;8.69;100.00
64616;BME280;51027;42.162;24.754;2022-12-08T10:03:56;99835.09;;;8.31;100.00
64616;BME280;51027;42.162;24.754;2022-12-08T10:11:45;99845.13;;;8.79;100.00
64616;BME280;51027;42.162;24.754;2022-12-08T10:17:20;99817.84;;;8.53;100.00
64616;BME280;51027;42.162;24.754;2022-12-08T10:19:47;99826.88;;;8.74;100.00
64616;BME280;51027;42.162;24.754;2022-12-08T10:22:22;99824.13;;;8.77;100.00
64616;BME280;51027;42.162;24.754;2022-12-08T10:24:59;99817.91;;;8.81;100.00
64616;BME280;51027;42.162;24.754;2022-12-08T10:27:25;99809.22;;;8.79;99.92
64616;BME280;51027;42.162;24.754;2022-12-08T10:29:52;99820.91;;;8.68;100.00
64616;BME280;51027;42.162;24.754;2022-12-08T10:32:20;99821.94;;;8.63;100.00
64616;BME280;51027;42.162;24.754;2022-12-08T10:35:05;99824.78;;;8.56;100.00
64616;BME280;51027;42.162;24.754;2022-12-08T10:37:31;99833.38;;;8.61;100.00
64616;BME280;51027;42.162;24.754;2022-12-08T10:40:10;99824.34;;;8.71;100.00
64616;BME280;51027;42.162;24.754;2022-12-08T10:42:45;99821.94;;;8.63;100.00
64616;BME280;51027;42.162;24.754;2022-12-08T10:45:32;99812.91;;;8.10;100.00
64616;BME280;51027;42.162;24.754;2022-12-08T10:48:20;99814.19;;;8.26;100.00
64616;BME280;51027;42.162;24.754;2022-12-08T10:50:53;99816.81;;;8.59;100.00
64616;BME280;51027;42.162;24.754;2022-12-08T10:53:31;99767.88;;;8.25;100.00
64616;BME280;51027;42.162;24.754;2022-12-08T11:00:56;99808.22;;;8.83;99.79
64616;BME280;51027;42.162;24.754;2022-12-08T11:03:28;99807.34;;;8.83;99.17
64616;BME280;51027;42.162;24.754;2022-12-08T11:05:56;99808.84;;;8.91;99.29
64616;BME280;51027;42.162;24.754;2022-12-08T11:08:24;99810.56;;;8.92;99.21
64616;BME280;51027;42.162;24.754;2022-12-08T11:10:49;99799.78;;;9.02;98.88
64616;BME280;51027;42.162;24.754;2022-12-08T11:13:22;99798.69;;;9.07;98.45
64616;BME280;51027;42.162;24.754;2022-12-08T11:15:48;99766.81;;;8.91;97.82
64616;BME280;51027;42.162;24.754;2022-12-08T11:18:30;99791.00;;;9.29;97.15
64616;BME280;51027;42.162;24.754;2022-12-08T11:21:16;99779.78;;;9.24;97.33
64616;BME280;51027;42.162;24.754;2022-12-08T11:23:46;99769.97;;;9.29;97.23
64616;BME280;51027;42.162;24.754;2022-12-08T11:26:34;99771.72;;;9.30;96.68
64616;BME280;51027;42.162;24.754;2022-12-08T11:29:01;99779.16;;;9.16;97.93
64616;BME280;51027;42.162;24.754;2022-12-08T11:33:54;99768.13;;;9.05;99.00
64616;BME280;51027;42.162;24.754;2022-12-08T11:36:22;99753.56;;;8.94;98.71
64616;BME280;51027;42.162;24.754;2022-12-08T11:38:51;99755.59;;;8.57;100.00
64616;BME280;51027;42.162;24.754;2022-12-08T11:41:26;99754.16;;;8.76;100.00
64616;BME280;51027;42.162;24.754;2022-12-08T11:47:08;99755.59;;;8.58;100.00
64616;BME280;51027;42.162;24.754;2022-12-08T11:49:38;99766.75;;;8.65;100.00
64616;BME280;51027;42.162;24.754;2022-12-08T11:57:34;99758.28;;;8.24;100.00
64616;BME280;51027;42.162;24.754;2022-12-08T12:00:00;99758.06;;;8.32;100.00
64616;BME280;51027;42.162;24.754;2022-12-08T12:02:29;99761.31;;;8.11;100.00
64616;BME280;51027;42.162;24.754;2022-12-08T12:18:51;99742.69;;;8.51;100.00
64616;BME280;51027;42.162;24.754;2022-12-08T12:21:41;99760.53;;;8.68;100.00
64616;BME280;51027;42.162;24.754;2022-12-08T12:24:15;99763.94;;;8.71;100.00
64616;BME280;51027;42.162;24.754;2022-12-08T12:30:07;99756.63;;;8.22;100.00
64616;BME280;51027;42.162;24.754;2022-12-08T12:32:47;99769.59;;;8.26;100.00
64616;BME280;51027;42.162;24.754;2022-12-08T12:35:20;99748.88;;;8.17;100.00
64616;BME280;51027;42.162;24.754;2022-12-08T12:37:47;99764.84;;;8.41;100.00
64616;BME280;51027;42.162;24.754;2022-12-08T12:40:23;99774.84;;;8.26;100.00
64616;BME280;51027;42.162;24.754;2022-12-08T12:48:31;99767.75;;;7.99;100.00
64616;BME280;51027;42.162;24.754;2022-12-08T12:50:44;99768.81;;;7.92;100.00
64616;BME280;51027;42.162;24.754;2022-12-08T12:58:38;99750.09;;;8.36;100.00
64616;BME280;51027;42.162;24.754;2022-12-08T13:03:41;99756.84;;;8.14;100.00
64616;BME280;51027;42.162;24.754;2022-12-08T13:06:09;99754.78;;;7.62;100.00
64616;BME280;51027;42.162;24.754;2022-12-08T13:08:41;99770.97;;;7.76;100.00
64616;BME280;51027;42.162;24.754;2022-12-08T13:11:13;99757.59;;;7.54;100.00
64616;BME280;51027;42.162;24.754;2022-12-08T13:14:22;99755.50;;;7.99;100.00
64616;BME280;51027;42.162;24.754;2022-12-08T13:16:53;99758.09;;;8.01;100.00
64616;BME280;51027;42.162;24.754;2022-12-08T13:19:20;99768.31;;;7.79;100.00
64616;BME280;51027;42.162;24.754;2022-12-08T13:21:46;99754.53;;;7.71;100.00
64616;BME280;51027;42.162;24.754;2022-12-08T13:24:27;99755.06;;;7.84;100.00
64616;BME280;51027;42.162;24.754;2022-12-08T13:29:27;99746.84;;;7.96;100.00
64616;BME280;51027;42.162;24.754;2022-12-08T13:32:00;99739.78;;;7.99;100.00
64616;BME280;51027;42.162;24.754;2022-12-08T13:42:35;99744.22;;;7.97;100.00
64616;BME280;51027;42.162;24.754;2022-12-08T13:52:37;99757.91;;;8.07;100.00
64616;BME280;51027;42.162;24.754;2022-12-08T13:55:14;99763.28;;;8.02;100.00
64616;BME280;51027;42.162;24.754;2022-12-08T13:57:42;99765.75;;;8.07;100.00
64616;BME280;51027;42.162;24.754;2022-12-08T14:00:15;99764.59;;;8.17;100.00
64616;BME280;51027;42.162;24.754;2022-12-08T14:02:44;99760.06;;;8.24;100.00
64616;BME280;51027;42.162;24.754;2022-12-08T14:05:10;99764.22;;;8.31;100.00
64616;BME280;51027;42.162;24.754;2022-12-08T14:07:38;99736.00;;;8.09;100.00
64616;BME280;51027;42.162;24.754;2022-12-08T14:10:09;99757.34;;;8.27;100.00
64616;BME280;51027;42.162;24.754;2022-12-08T14:12:44;99754.38;;;8.41;100.00
64616;BME280;51027;42.162;24.754;2022-12-08T14:15:13;99752.66;;;8.40;100.00
64616;BME280;51027;42.162;24.754;2022-12-08T14:17:40;99747.88;;;8.21;100.00
64616;BME280;51027;42.162;24.754;2022-12-08T14:22:39;99742.75;;;8.17;100.00
64616;BME280;51027;42.162;24.754;2022-12-08T14:25:08;99751.91;;;8.33;100.00
64616;BME280;51027;42.162;24.754;2022-12-08T14:27:36;99743.66;;;8.47;100.00
64616;BME280;51027;42.162;24.754;2022-12-08T14:32:47;99743.03;;;8.07;100.00
64616;BME280;51027;42.162;24.754;2022-12-08T14:37:56;99737.09;;;8.32;100.00
64616;BME280;51027;42.162;24.754;2022-12-08T14:45:32;99758.75;;;8.09;100.00
64616;BME280;51027;42.162;24.754;2022-12-08T14:53:24;99759.09;;;8.26;100.00
64616;BME280;51027;42.162;24.754;2022-12-08T14:55:49;99613.38;;;7.25;100.00
64616;BME280;51027;42.162;24.754;2022-12-08T14:58:17;99766.66;;;8.07;100.00